sensor_id;sensor_type;location;lat;lon;timestamp;P1;durP1;ratioP1;P2;durP2;ratioP2
69910;SDS011;63555;49.920;17.868;2022-12-18T00:01:20;45.70;;;4.72;;
69910;SDS011;63555;49.920;17.868;2022-12-18T00:06:22;42.70;;;5.43;;
69910;SDS011;63555;49.920;17.868;2022-12-18T00:11:26;65.75;;;8.60;;
69910;SDS011;63555;49.920;17.868;2022-12-18T00:16:29;47.13;;;6.82;;
69910;SDS011;63555;49.920;17.868;2022-12-18T00:21:35;24.95;;;4.18;;
69910;SDS011;63555;49.920;17.868;2022-12-18T00:26:36;41.97;;;5.33;;
69910;SDS011;63555;49.920;17.868;2022-12-18T00:31:38;15.65;;;2.40;;
69910;SDS011;63555;49.920;17.868;2022-12-18T00:36:38;52.73;;;6.37;;
69910;SDS011;63555;49.920;17.868;2022-12-18T00:41:40;20.10;;;2.53;;
69910;SDS011;63555;49.920;17.868;2022-12-18T00:46:58;70.63;;;8.68;;
69910;SDS011;63555;49.920;17.868;2022-12-18T00:51:59;46.87;;;6.13;;
69910;SDS011;63555;49.920;17.868;2022-12-18T00:56:59;55.60;;;7.20;;
69910;SDS011;63555;49.920;17.868;2022-12-18T01:01:59;52.37;;;6.83;;
69910;SDS011;63555;49.920;17.868;2022-12-18T01:07:00;77.53;;;10.17;;
69910;SDS011;63555;49.920;17.868;2022-12-18T01:12:00;61.67;;;7.67;;
69910;SDS011;63555;49.920;17.868;2022-12-18T01:17:00;66.83;;;8.20;;
69910;SDS011;63555;49.920;17.868;2022-12-18T01:22:03;60.60;;;9.52;;
69910;SDS011;63555;49.920;17.868;2022-12-18T01:27:03;62.83;;;9.57;;
69910;SDS011;63555;49.920;17.868;2022-12-18T01:32:04;57.67;;;5.97;;
69910;SDS011;63555;49.920;17.868;2022-12-18T01:37:05;57.15;;;7.15;;
69910;SDS011;63555;49.920;17.868;2022-12-18T01:42:10;37.88;;;6.18;;
69910;SDS011;63555;49.920;17.868;2022-12-18T01:47:46;77.30;;;10.13;;
69910;SDS011;63555;49.920;17.868;2022-12-18T01:52:42;31.43;;;4.03;;
69910;SDS011;63555;49.920;17.868;2022-12-18T01:57:44;34.25;;;5.70;;
69910;SDS011;63555;49.920;17.868;2022-12-18T02:02:46;42.00;;;5.50;;
69910;SDS011;63555;49.920;17.868;2022-12-18T02:12:58;54.83;;;6.50;;
69910;SDS011;63555;49.920;17.868;2022-12-18T02:18:14;47.65;;;6.05;;
69910;SDS011;63555;49.920;17.868;2022-12-18T02:29:10;12.38;;;2.92;;
69910;SDS011;63555;49.920;17.868;2022-12-18T02:34:12;48.05;;;5.53;;
69910;SDS011;63555;49.920;17.868;2022-12-18T02:39:14;25.40;;;5.47;;
69910;SDS011;63555;49.920;17.868;2022-12-18T02:44:16;2.25;;;0.52;;
69910;SDS011;63555;49.920;17.868;2022-12-18T02:54:26;34.42;;;4.90;;
69910;SDS011;63555;49.920;17.868;2022-12-18T02:59:34;45.17;;;7.90;;
69910;SDS011;63555;49.920;17.868;2022-12-18T03:04:43;17.75;;;3.65;;
69910;SDS011;63555;49.920;17.868;2022-12-18T03:09:50;38.00;;;5.67;;
69910;SDS011;63555;49.920;17.868;2022-12-18T03:14:55;37.08;;;5.28;;
69910;SDS011;63555;49.920;17.868;2022-12-18T03:20:05;43.42;;;6.38;;
69910;SDS011;63555;49.920;17.868;2022-12-18T03:25:11;25.48;;;5.38;;
69910;SDS011;63555;49.920;17.868;2022-12-18T03:30:14;40.75;;;7.70;;
69910;SDS011;63555;49.920;17.868;2022-12-18T03:35:16;40.07;;;6.80;;
69910;SDS011;63555;49.920;17.868;2022-12-18T03:40:22;18.30;;;3.25;;
69910;SDS011;63555;49.920;17.868;2022-12-18T03:45:34;40.47;;;8.05;;
69910;SDS011;63555;49.920;17.868;2022-12-18T03:50:51;47.63;;;6.70;;
69910;SDS011;63555;49.920;17.868;2022-12-18T03:55:57;37.17;;;6.68;;
69910;SDS011;63555;49.920;17.868;2022-12-18T04:01:00;39.10;;;5.50;;
69910;SDS011;63555;49.920;17.868;2022-12-18T04:06:03;58.20;;;7.32;;
69910;SDS011;63555;49.920;17.868;2022-12-18T04:11:06;27.63;;;4.03;;
69910;SDS011;63555;49.920;17.868;2022-12-18T04:16:06;17.42;;;2.70;;
69910;SDS011;63555;49.920;17.868;2022-12-18T04:21:07;46.53;;;5.70;;
69910;SDS011;63555;49.920;17.868;2022-12-18T04:26:08;29.23;;;4.93;;
69910;SDS011;63555;49.920;17.868;2022-12-18T04:31:08;19.63;;;2.93;;
69910;SDS011;63555;49.920;17.868;2022-12-18T04:36:08;48.10;;;6.57;;
69910;SDS011;63555;49.920;17.868;2022-12-18T04:41:09;23.33;;;5.07;;
69910;SDS011;63555;49.920;17.868;2022-12-18T04:46:09;16.80;;;3.60;;
69910;SDS011;63555;49.920;17.868;2022-12-18T04:51:09;56.67;;;9.40;;
69910;SDS011;63555;49.920;17.868;2022-12-18T04:56:11;19.50;;;4.50;;
69910;SDS011;63555;49.920;17.868;2022-12-18T05:01:13;20.27;;;5.05;;
69910;SDS011;63555;49.920;17.868;2022-12-18T05:06:15;7.35;;;1.40;;
69910;SDS011;63555;49.920;17.868;2022-12-18T05:11:16;36.80;;;8.23;;
69910;SDS011;63555;49.920;17.868;2022-12-18T05:16:16;20.57;;;3.53;;
69910;SDS011;63555;49.920;17.868;2022-12-18T05:21:17;16.67;;;2.30;;
69910;SDS011;63555;49.920;17.868;2022-12-18T05:26:17;23.70;;;4.03;;
69910;SDS011;63555;49.920;17.868;2022-12-18T05:31:18;45.20;;;8.95;;
69910;SDS011;63555;49.920;17.868;2022-12-18T05:36:18;30.23;;;6.20;;
69910;SDS011;63555;49.920;17.868;2022-12-18T05:41:19;27.93;;;5.13;;
69910;SDS011;63555;49.920;17.868;2022-12-18T05:46:19;24.20;;;3.37;;
69910;SDS011;63555;49.920;17.868;2022-12-18T05:51:20;10.90;;;3.00;;
69910;SDS011;63555;49.920;17.868;2022-12-18T05:56:22;6.43;;;2.17;;
69910;SDS011;63555;49.920;17.868;2022-12-18T06:01:24;21.02;;;3.67;;
69910;SDS011;63555;49.920;17.868;2022-12-18T06:06:27;29.33;;;4.93;;
69910;SDS011;63555;49.920;17.868;2022-12-18T06:11:28;38.95;;;7.13;;
69910;SDS011;63555;49.920;17.868;2022-12-18T06:16:29;24.97;;;5.37;;
69910;SDS011;63555;49.920;17.868;2022-12-18T06:21:30;27.95;;;7.50;;
69910;SDS011;63555;49.920;17.868;2022-12-18T06:26:31;38.17;;;9.23;;
69910;SDS011;63555;49.920;17.868;2022-12-18T06:31:31;20.83;;;6.33;;
69910;SDS011;63555;49.920;17.868;2022-12-18T06:36:32;11.43;;;3.07;;
69910;SDS011;63555;49.920;17.868;2022-12-18T06:41:32;17.77;;;5.30;;
69910;SDS011;63555;49.920;17.868;2022-12-18T06:46:33;30.93;;;7.77;;
69910;SDS011;63555;49.920;17.868;2022-12-18T06:51:33;23.60;;;5.67;;
69910;SDS011;63555;49.920;17.868;2022-12-18T06:56:34;37.43;;;10.17;;
69910;SDS011;63555;49.920;17.868;2022-12-18T07:01:34;19.38;;;6.55;;
69910;SDS011;63555;49.920;17.868;2022-12-18T07:06:35;15.63;;;4.17;;
69910;SDS011;63555;49.920;17.868;2022-12-18T07:11:35;18.50;;;4.43;;
69910;SDS011;63555;49.920;17.868;2022-12-18T07:16:35;17.27;;;6.10;;
69910;SDS011;63555;49.920;17.868;2022-12-18T07:21:36;10.00;;;2.37;;
69910;SDS011;63555;49.920;17.868;2022-12-18T07:26:36;17.80;;;5.33;;
69910;SDS011;63555;49.920;17.868;2022-12-18T07:31:36;19.90;;;6.27;;
69910;SDS011;63555;49.920;17.868;2022-12-18T07:36:37;14.87;;;3.20;;
69910;SDS011;63555;49.920;17.868;2022-12-18T07:41:37;24.17;;;6.20;;
69910;SDS011;63555;49.920;17.868;2022-12-18T07:46:38;25.20;;;6.17;;
69910;SDS011;63555;49.920;17.868;2022-12-18T07:51:38;22.08;;;7.10;;
69910;SDS011;63555;49.920;17.868;2022-12-18T07:56:39;17.97;;;5.43;;
69910;SDS011;63555;49.920;17.868;2022-12-18T08:01:39;32.53;;;7.33;;
69910;SDS011;63555;49.920;17.868;2022-12-18T08:06:39;18.80;;;6.57;;
69910;SDS011;63555;49.920;17.868;2022-12-18T08:11:40;25.30;;;6.77;;
69910;SDS011;63555;49.920;17.868;2022-12-18T08:16:40;23.37;;;5.90;;
69910;SDS011;63555;49.920;17.868;2022-12-18T08:21:40;28.50;;;9.00;;
69910;SDS011;63555;49.920;17.868;2022-12-18T08:26:41;27.00;;;9.27;;
69910;SDS011;63555;49.920;17.868;2022-12-18T08:31:43;11.95;;;3.75;;
69910;SDS011;63555;49.920;17.868;2022-12-18T08:36:43;14.13;;;4.60;;
69910;SDS011;63555;49.920;17.868;2022-12-18T08:41:44;21.77;;;6.73;;
69910;SDS011;63555;49.920;17.868;2022-12-18T08:47:05;20.92;;;6.22;;
69910;SDS011;63555;49.920;17.868;2022-12-18T08:52:06;33.33;;;11.20;;
69910;SDS011;63555;49.920;17.868;2022-12-18T08:57:06;21.33;;;6.33;;
69910;SDS011;63555;49.920;17.868;2022-12-18T09:02:08;33.57;;;10.23;;
69910;SDS011;63555;49.920;17.868;2022-12-18T09:07:11;24.63;;;7.57;;
69910;SDS011;63555;49.920;17.868;2022-12-18T09:12:12;23.83;;;8.07;;
69910;SDS011;63555;49.920;17.868;2022-12-18T09:17:12;15.77;;;3.50;;
69910;SDS011;63555;49.920;17.868;2022-12-18T09:22:13;29.63;;;7.88;;
69910;SDS011;63555;49.920;17.868;2022-12-18T09:27:13;14.67;;;5.17;;
69910;SDS011;63555;49.920;17.868;2022-12-18T09:32:14;24.10;;;5.33;;
69910;SDS011;63555;49.920;17.868;2022-12-18T09:37:14;23.93;;;8.60;;
69910;SDS011;63555;49.920;17.868;2022-12-18T09:42:17;13.37;;;3.53;;
69910;SDS011;63555;49.920;17.868;2022-12-18T09:47:34;36.10;;;11.43;;
69910;SDS011;63555;49.920;17.868;2022-12-18T09:52:43;29.30;;;8.88;;
69910;SDS011;63555;49.920;17.868;2022-12-18T09:57:49;14.48;;;5.65;;
69910;SDS011;63555;49.920;17.868;2022-12-18T10:02:55;17.70;;;5.90;;
69910;SDS011;63555;49.920;17.868;2022-12-18T10:08:06;20.15;;;6.72;;
69910;SDS011;63555;49.920;17.868;2022-12-18T10:13:50;31.75;;;9.57;;
69910;SDS011;63555;49.920;17.868;2022-12-18T10:18:55;30.58;;;9.80;;
69910;SDS011;63555;49.920;17.868;2022-12-18T10:29:20;30.47;;;8.30;;
69910;SDS011;63555;49.920;17.868;2022-12-18T10:34:21;34.38;;;8.55;;
69910;SDS011;63555;49.920;17.868;2022-12-18T10:39:22;37.40;;;12.73;;
69910;SDS011;63555;49.920;17.868;2022-12-18T10:44:28;30.20;;;9.48;;
69910;SDS011;63555;49.920;17.868;2022-12-18T10:49:32;38.10;;;13.20;;
69910;SDS011;63555;49.920;17.868;2022-12-18T10:54:35;35.93;;;11.67;;
69910;SDS011;63555;49.920;17.868;2022-12-18T10:59:49;33.88;;;11.85;;
69910;SDS011;63555;49.920;17.868;2022-12-18T11:04:51;48.13;;;16.20;;
69910;SDS011;63555;49.920;17.868;2022-12-18T11:10:00;35.40;;;13.00;;
69910;SDS011;63555;49.920;17.868;2022-12-18T11:15:29;37.47;;;12.43;;
69910;SDS011;63555;49.920;17.868;2022-12-18T11:20:34;43.60;;;14.63;;
69910;SDS011;63555;49.920;17.868;2022-12-18T11:25:35;42.92;;;15.23;;
69910;SDS011;63555;49.920;17.868;2022-12-18T11:30:36;36.67;;;11.97;;
69910;SDS011;63555;49.920;17.868;2022-12-18T11:36:11;39.55;;;13.45;;
69910;SDS011;63555;49.920;17.868;2022-12-18T11:51:47;37.83;;;12.75;;
69910;SDS011;63555;49.920;17.868;2022-12-18T11:57:03;40.45;;;13.85;;
69910;SDS011;63555;49.920;17.868;2022-12-18T12:02:19;40.05;;;14.60;;
69910;SDS011;63555;49.920;17.868;2022-12-18T12:13:18;38.78;;;13.02;;
69910;SDS011;63555;49.920;17.868;2022-12-18T12:23:55;48.72;;;16.08;;
69910;SDS011;63555;49.920;17.868;2022-12-18T12:34:20;48.07;;;16.57;;
69910;SDS011;63555;49.920;17.868;2022-12-18T12:39:22;46.60;;;14.25;;
69910;SDS011;63555;49.920;17.868;2022-12-18T12:44:32;47.63;;;16.10;;
69910;SDS011;63555;49.920;17.868;2022-12-18T12:49:35;51.95;;;17.67;;
69910;SDS011;63555;49.920;17.868;2022-12-18T12:54:39;56.63;;;17.88;;
69910;SDS011;63555;49.920;17.868;2022-12-18T13:04:52;55.90;;;18.92;;
69910;SDS011;63555;49.920;17.868;2022-12-18T13:15:22;59.45;;;19.60;;
69910;SDS011;63555;49.920;17.868;2022-12-18T13:20:23;55.10;;;17.65;;
69910;SDS011;63555;49.920;17.868;2022-12-18T13:25:35;63.77;;;20.37;;
69910;SDS011;63555;49.920;17.868;2022-12-18T13:45:59;50.63;;;18.13;;
69910;SDS011;63555;49.920;17.868;2022-12-18T13:51:06;67.80;;;22.38;;
69910;SDS011;63555;49.920;17.868;2022-12-18T13:56:09;45.83;;;15.47;;
69910;SDS011;63555;49.920;17.868;2022-12-18T14:01:21;48.97;;;16.40;;
69910;SDS011;63555;49.920;17.868;2022-12-18T14:06:23;45.63;;;14.65;;
69910;SDS011;63555;49.920;17.868;2022-12-18T14:11:24;45.17;;;14.98;;
69910;SDS011;63555;49.920;17.868;2022-12-18T14:16:25;53.97;;;16.90;;
69910;SDS011;63555;49.920;17.868;2022-12-18T14:21:26;53.23;;;17.17;;
69910;SDS011;63555;49.920;17.868;2022-12-18T14:26:28;49.72;;;15.73;;
69910;SDS011;63555;49.920;17.868;2022-12-18T14:31:31;46.83;;;15.37;;
69910;SDS011;63555;49.920;17.868;2022-12-18T14:36:31;45.45;;;13.82;;
69910;SDS011;63555;49.920;17.868;2022-12-18T14:41:32;53.70;;;17.27;;
69910;SDS011;63555;49.920;17.868;2022-12-18T14:51:37;43.55;;;13.57;;
69910;SDS011;63555;49.920;17.868;2022-12-18T14:56:42;50.93;;;16.23;;
69910;SDS011;63555;49.920;17.868;2022-12-18T15:01:46;42.67;;;14.77;;
69910;SDS011;63555;49.920;17.868;2022-12-18T15:07:04;52.57;;;16.63;;
69910;SDS011;63555;49.920;17.868;2022-12-18T15:12:19;53.80;;;16.95;;
69910;SDS011;63555;49.920;17.868;2022-12-18T15:17:26;65.90;;;21.33;;
69910;SDS011;63555;49.920;17.868;2022-12-18T15:22:34;47.38;;;16.67;;
69910;SDS011;63555;49.920;17.868;2022-12-18T15:27:35;54.45;;;19.08;;
69910;SDS011;63555;49.920;17.868;2022-12-18T15:32:37;68.88;;;23.55;;
69910;SDS011;63555;49.920;17.868;2022-12-18T15:37:42;46.90;;;17.50;;
69910;SDS011;63555;49.920;17.868;2022-12-18T15:42:43;43.50;;;17.43;;
69910;SDS011;63555;49.920;17.868;2022-12-18T15:48:24;45.70;;;16.98;;
69910;SDS011;63555;49.920;17.868;2022-12-18T15:53:24;48.75;;;16.23;;
69910;SDS011;63555;49.920;17.868;2022-12-18T15:58:27;51.70;;;14.32;;
69910;SDS011;63555;49.920;17.868;2022-12-18T16:03:28;44.37;;;15.67;;
69910;SDS011;63555;49.920;17.868;2022-12-18T16:08:29;50.97;;;16.20;;
69910;SDS011;63555;49.920;17.868;2022-12-18T16:13:30;39.22;;;13.73;;
69910;SDS011;63555;49.920;17.868;2022-12-18T16:18:30;37.80;;;11.30;;
69910;SDS011;63555;49.920;17.868;2022-12-18T16:23:30;34.73;;;12.67;;
69910;SDS011;63555;49.920;17.868;2022-12-18T16:28:31;42.37;;;13.00;;
69910;SDS011;63555;49.920;17.868;2022-12-18T16:33:31;48.80;;;16.03;;
69910;SDS011;63555;49.920;17.868;2022-12-18T16:38:31;42.80;;;14.60;;
69910;SDS011;63555;49.920;17.868;2022-12-18T16:43:32;39.40;;;13.17;;
69910;SDS011;63555;49.920;17.868;2022-12-18T16:48:32;23.30;;;10.10;;
69910;SDS011;63555;49.920;17.868;2022-12-18T16:53:33;23.80;;;8.90;;
69910;SDS011;63555;49.920;17.868;2022-12-18T16:58:33;25.50;;;9.30;;
69910;SDS011;63555;49.920;17.868;2022-12-18T17:03:34;43.57;;;15.43;;
69910;SDS011;63555;49.920;17.868;2022-12-18T17:08:34;43.40;;;15.47;;
69910;SDS011;63555;49.920;17.868;2022-12-18T17:13:35;36.87;;;11.83;;
69910;SDS011;63555;49.920;17.868;2022-12-18T17:18:35;25.17;;;9.90;;
69910;SDS011;63555;49.920;17.868;2022-12-18T17:23:36;33.37;;;10.50;;
69910;SDS011;63555;49.920;17.868;2022-12-18T17:28:37;30.80;;;12.43;;
69910;SDS011;63555;49.920;17.868;2022-12-18T17:33:38;36.60;;;12.65;;
69910;SDS011;63555;49.920;17.868;2022-12-18T17:38:39;25.53;;;8.97;;
69910;SDS011;63555;49.920;17.868;2022-12-18T17:43:41;21.17;;;10.10;;
69910;SDS011;63555;49.920;17.868;2022-12-18T17:48:45;21.27;;;8.07;;
69910;SDS011;63555;49.920;17.868;2022-12-18T17:53:47;22.38;;;10.02;;
69910;SDS011;63555;49.920;17.868;2022-12-18T17:58:47;25.67;;;11.30;;
69910;SDS011;63555;49.920;17.868;2022-12-18T18:03:49;20.20;;;9.43;;
69910;SDS011;63555;49.920;17.868;2022-12-18T18:08:50;27.27;;;9.60;;
69910;SDS011;63555;49.920;17.868;2022-12-18T18:13:52;14.88;;;7.20;;
69910;SDS011;63555;49.920;17.868;2022-12-18T18:19:06;16.33;;;8.95;;
69910;SDS011;63555;49.920;17.868;2022-12-18T18:24:09;17.80;;;7.93;;
69910;SDS011;63555;49.920;17.868;2022-12-18T18:29:12;24.02;;;8.88;;
69910;SDS011;63555;49.920;17.868;2022-12-18T18:34:15;20.07;;;10.13;;
69910;SDS011;63555;49.920;17.868;2022-12-18T18:39:27;23.70;;;8.90;;
69910;SDS011;63555;49.920;17.868;2022-12-18T18:44:27;16.33;;;7.90;;
69910;SDS011;63555;49.920;17.868;2022-12-18T18:49:28;10.80;;;5.03;;
69910;SDS011;63555;49.920;17.868;2022-12-18T18:54:29;13.33;;;8.23;;
69910;SDS011;63555;49.920;17.868;2022-12-18T18:59:30;19.75;;;6.13;;
69910;SDS011;63555;49.920;17.868;2022-12-18T19:04:31;11.93;;;5.40;;
69910;SDS011;63555;49.920;17.868;2022-12-18T19:09:33;16.37;;;6.43;;
69910;SDS011;63555;49.920;17.868;2022-12-18T19:14:35;16.23;;;7.30;;
69910;SDS011;63555;49.920;17.868;2022-12-18T19:19:35;14.63;;;7.00;;
69910;SDS011;63555;49.920;17.868;2022-12-18T19:24:35;15.03;;;8.73;;
69910;SDS011;63555;49.920;17.868;2022-12-18T19:29:36;25.23;;;7.70;;
69910;SDS011;63555;49.920;17.868;2022-12-18T19:34:36;18.93;;;7.13;;
69910;SDS011;63555;49.920;17.868;2022-12-18T19:39:37;19.90;;;7.30;;
69910;SDS011;63555;49.920;17.868;2022-12-18T19:44:40;19.30;;;8.73;;
69910;SDS011;63555;49.920;17.868;2022-12-18T19:49:41;16.97;;;7.97;;
69910;SDS011;63555;49.920;17.868;2022-12-18T19:54:42;12.73;;;6.83;;
69910;SDS011;63555;49.920;17.868;2022-12-18T19:59:43;18.42;;;7.85;;
69910;SDS011;63555;49.920;17.868;2022-12-18T20:04:43;13.90;;;6.63;;
69910;SDS011;63555;49.920;17.868;2022-12-18T20:09:44;12.27;;;7.63;;
69910;SDS011;63555;49.920;17.868;2022-12-18T20:14:44;22.80;;;8.07;;
69910;SDS011;63555;49.920;17.868;2022-12-18T20:19:46;26.17;;;8.40;;
69910;SDS011;63555;49.920;17.868;2022-12-18T20:24:46;14.35;;;6.88;;
69910;SDS011;63555;49.920;17.868;2022-12-18T20:29:46;16.20;;;7.40;;
69910;SDS011;63555;49.920;17.868;2022-12-18T20:34:47;16.00;;;8.43;;
69910;SDS011;63555;49.920;17.868;2022-12-18T20:39:48;20.33;;;7.97;;
69910;SDS011;63555;49.920;17.868;2022-12-18T20:44:50;19.73;;;7.83;;
69910;SDS011;63555;49.920;17.868;2022-12-18T20:49:52;17.85;;;8.10;;
69910;SDS011;63555;49.920;17.868;2022-12-18T20:54:52;17.20;;;7.80;;
69910;SDS011;63555;49.920;17.868;2022-12-18T20:59:52;13.03;;;6.43;;
69910;SDS011;63555;49.920;17.868;2022-12-18T21:04:53;9.33;;;6.77;;
69910;SDS011;63555;49.920;17.868;2022-12-18T21:09:53;16.40;;;9.03;;
69910;SDS011;63555;49.920;17.868;2022-12-18T21:14:54;23.47;;;8.40;;
69910;SDS011;63555;49.920;17.868;2022-12-18T21:19:54;9.93;;;6.07;;
69910;SDS011;63555;49.920;17.868;2022-12-18T21:24:54;24.17;;;8.60;;
69910;SDS011;63555;49.920;17.868;2022-12-18T21:29:55;14.50;;;8.57;;
69910;SDS011;63555;49.920;17.868;2022-12-18T21:34:55;19.83;;;8.93;;
69910;SDS011;63555;49.920;17.868;2022-12-18T21:39:56;15.18;;;9.40;;
69910;SDS011;63555;49.920;17.868;2022-12-18T21:44:56;15.60;;;9.10;;
69910;SDS011;63555;49.920;17.868;2022-12-18T21:49:57;15.50;;;8.07;;
69910;SDS011;63555;49.920;17.868;2022-12-18T21:54:57;40.10;;;11.87;;
69910;SDS011;63555;49.920;17.868;2022-12-18T21:59:58;21.80;;;10.37;;
69910;SDS011;63555;49.920;17.868;2022-12-18T22:04:58;22.83;;;9.27;;
69910;SDS011;63555;49.920;17.868;2022-12-18T22:09:58;20.30;;;7.80;;
69910;SDS011;63555;49.920;17.868;2022-12-18T22:14:59;19.87;;;10.37;;
69910;SDS011;63555;49.920;17.868;2022-12-18T22:19:59;20.77;;;10.27;;
69910;SDS011;63555;49.920;17.868;2022-12-18T22:25:00;21.77;;;8.70;;
69910;SDS011;63555;49.920;17.868;2022-12-18T22:30:00;32.07;;;10.37;;
69910;SDS011;63555;49.920;17.868;2022-12-18T22:35:04;28.90;;;10.40;;
69910;SDS011;63555;49.920;17.868;2022-12-18T22:40:05;25.33;;;8.35;;
69910;SDS011;63555;49.920;17.868;2022-12-18T22:45:06;38.55;;;13.80;;
69910;SDS011;63555;49.920;17.868;2022-12-18T22:50:09;29.27;;;12.17;;
69910;SDS011;63555;49.920;17.868;2022-12-18T22:55:11;29.13;;;13.27;;
69910;SDS011;63555;49.920;17.868;2022-12-18T23:00:11;24.60;;;12.07;;
69910;SDS011;63555;49.920;17.868;2022-12-18T23:05:12;27.67;;;13.47;;
69910;SDS011;63555;49.920;17.868;2022-12-18T23:10:13;25.87;;;12.63;;
69910;SDS011;63555;49.920;17.868;2022-12-18T23:15:13;22.37;;;10.27;;
69910;SDS011;63555;49.920;17.868;2022-12-18T23:20:13;22.13;;;10.27;;
69910;SDS011;63555;49.920;17.868;2022-12-18T23:25:14;24.90;;;9.07;;
69910;SDS011;63555;49.920;17.868;2022-12-18T23:30:14;15.67;;;7.03;;
69910;SDS011;63555;49.920;17.868;2022-12-18T23:35:15;16.87;;;6.87;;
69910;SDS011;63555;49.920;17.868;2022-12-18T23:40:16;46.15;;;11.98;;
69910;SDS011;63555;49.920;17.868;2022-12-18T23:45:16;21.63;;;9.37;;
69910;SDS011;63555;49.920;17.868;2022-12-18T23:50:17;21.87;;;12.03;;
69910;SDS011;63555;49.920;17.868;2022-12-18T23:55:17;23.03;;;9.07;;
